sensor_id;sensor_type;location;lat;lon;timestamp;P1;durP1;ratioP1;P2;durP2;ratioP2
16387;SDS011;8303;53.446;9.988;2023-06-22T04:43:41;58.97;;;55.13;;
16387;SDS011;8303;53.446;9.988;2023-06-22T04:46:07;59.47;;;55.88;;
16387;SDS011;8303;53.446;9.988;2023-06-22T04:48:34;67.32;;;63.40;;
16387;SDS011;8303;53.446;9.988;2023-06-22T04:51:03;80.53;;;75.85;;
16387;SDS011;8303;53.446;9.988;2023-06-22T04:53:30;86.38;;;81.65;;
16387;SDS011;8303;53.446;9.988;2023-06-22T04:55:57;69.60;;;64.93;;
16387;SDS011;8303;53.446;9.988;2023-06-22T04:58:23;51.20;;;47.90;;
16387;SDS011;8303;53.446;9.988;2023-06-22T05:00:53;61.28;;;57.35;;
16387;SDS011;8303;53.446;9.988;2023-06-22T05:03:22;69.03;;;64.45;;
16387;SDS011;8303;53.446;9.988;2023-06-22T05:05:51;72.15;;;67.50;;
16387;SDS011;8303;53.446;9.988;2023-06-22T05:08:19;84.70;;;79.53;;
16387;SDS011;8303;53.446;9.988;2023-06-22T05:10:45;72.35;;;68.18;;
16387;SDS011;8303;53.446;9.988;2023-06-22T05:13:14;72.72;;;68.10;;
16387;SDS011;8303;53.446;9.988;2023-06-22T05:15:41;79.45;;;73.35;;
16387;SDS011;8303;53.446;9.988;2023-06-22T05:18:10;88.70;;;82.90;;
16387;SDS011;8303;53.446;9.988;2023-06-22T05:20:37;81.30;;;76.47;;
16387;SDS011;8303;53.446;9.988;2023-06-22T05:23:04;85.68;;;80.45;;
16387;SDS011;8303;53.446;9.988;2023-06-22T05:25:31;82.70;;;76.82;;
16387;SDS011;8303;53.446;9.988;2023-06-22T05:30:50;69.32;;;64.90;;
16387;SDS011;8303;53.446;9.988;2023-06-22T05:33:18;87.18;;;82.28;;
16387;SDS011;8303;53.446;9.988;2023-06-22T05:35:45;69.15;;;64.85;;
16387;SDS011;8303;53.446;9.988;2023-06-22T05:38:15;51.33;;;48.05;;
16387;SDS011;8303;53.446;9.988;2023-06-22T05:40:42;72.57;;;68.22;;
16387;SDS011;8303;53.446;9.988;2023-06-22T05:43:09;53.38;;;50.20;;
16387;SDS011;8303;53.446;9.988;2023-06-22T05:45:36;57.95;;;54.45;;
16387;SDS011;8303;53.446;9.988;2023-06-22T05:48:04;57.55;;;53.97;;
16387;SDS011;8303;53.446;9.988;2023-06-22T05:50:33;60.33;;;56.65;;
16387;SDS011;8303;53.446;9.988;2023-06-22T05:53:00;41.58;;;38.83;;
16387;SDS011;8303;53.446;9.988;2023-06-22T05:55:27;41.05;;;38.22;;
16387;SDS011;8303;53.446;9.988;2023-06-22T05:57:54;44.75;;;41.95;;
16387;SDS011;8303;53.446;9.988;2023-06-22T06:00:21;55.80;;;52.38;;
16387;SDS011;8303;53.446;9.988;2023-06-22T06:02:51;61.53;;;57.90;;
16387;SDS011;8303;53.446;9.988;2023-06-22T06:05:18;53.00;;;49.53;;
16387;SDS011;8303;53.446;9.988;2023-06-22T06:07:47;64.90;;;60.72;;
16387;SDS011;8303;53.446;9.988;2023-06-22T06:10:14;77.55;;;72.97;;
16387;SDS011;8303;53.446;9.988;2023-06-22T06:12:41;76.25;;;71.80;;
16387;SDS011;8303;53.446;9.988;2023-06-22T06:15:09;65.82;;;62.03;;
16387;SDS011;8303;53.446;9.988;2023-06-22T06:17:44;58.97;;;55.40;;
16387;SDS011;8303;53.446;9.988;2023-06-22T06:20:13;60.22;;;56.72;;
16387;SDS011;8303;53.446;9.988;2023-06-22T06:22:40;85.43;;;80.72;;
16387;SDS011;8303;53.446;9.988;2023-06-22T06:25:09;77.72;;;73.32;;
16387;SDS011;8303;53.446;9.988;2023-06-22T06:27:41;72.35;;;67.82;;
16387;SDS011;8303;53.446;9.988;2023-06-22T06:30:09;71.63;;;67.47;;
16387;SDS011;8303;53.446;9.988;2023-06-22T06:32:38;77.13;;;72.60;;
16387;SDS011;8303;53.446;9.988;2023-06-22T06:35:08;76.50;;;72.07;;
16387;SDS011;8303;53.446;9.988;2023-06-22T06:37:37;93.00;;;87.88;;
16387;SDS011;8303;53.446;9.988;2023-06-22T06:40:05;100.78;;;95.28;;
16387;SDS011;8303;53.446;9.988;2023-06-22T06:42:37;100.90;;;95.40;;
16387;SDS011;8303;53.446;9.988;2023-06-22T06:45:07;110.05;;;104.10;;
16387;SDS011;8303;53.446;9.988;2023-06-22T06:47:34;108.13;;;102.43;;
16387;SDS011;8303;53.446;9.988;2023-06-22T06:50:01;91.65;;;86.70;;
16387;SDS011;8303;53.446;9.988;2023-06-22T06:52:29;98.82;;;93.47;;
16387;SDS011;8303;53.446;9.988;2023-06-22T06:54:57;98.90;;;93.43;;
16387;SDS011;8303;53.446;9.988;2023-06-22T06:57:30;99.72;;;94.20;;
16387;SDS011;8303;53.446;9.988;2023-06-22T06:59:58;98.75;;;93.28;;
16387;SDS011;8303;53.446;9.988;2023-06-22T07:02:27;74.88;;;70.60;;
16387;SDS011;8303;53.446;9.988;2023-06-22T07:04:54;72.43;;;68.28;;
16387;SDS011;8303;53.446;9.988;2023-06-22T07:07:21;65.15;;;61.47;;
16387;SDS011;8303;53.446;9.988;2023-06-22T07:09:49;64.25;;;60.67;;
16387;SDS011;8303;53.446;9.988;2023-06-22T07:29:07;72.38;;;68.15;;
16387;SDS011;8303;53.446;9.988;2023-06-22T07:31:37;66.63;;;62.60;;
16387;SDS011;8303;53.446;9.988;2023-06-22T07:34:05;82.68;;;77.90;;
16387;SDS011;8303;53.446;9.988;2023-06-22T07:36:32;73.82;;;69.63;;
16387;SDS011;8303;53.446;9.988;2023-06-22T07:39:00;58.38;;;54.95;;
16387;SDS011;8303;53.446;9.988;2023-06-22T07:41:28;66.53;;;62.67;;
16387;SDS011;8303;53.446;9.988;2023-06-22T07:43:55;85.53;;;80.80;;
16387;SDS011;8303;53.446;9.988;2023-06-22T07:46:24;74.13;;;70.03;;
16387;SDS011;8303;53.446;9.988;2023-06-22T07:48:51;65.38;;;61.63;;
16387;SDS011;8303;53.446;9.988;2023-06-22T07:51:19;67.75;;;64.03;;
16387;SDS011;8303;53.446;9.988;2023-06-22T07:53:46;61.97;;;58.53;;
16387;SDS011;8303;53.446;9.988;2023-06-22T07:56:13;51.97;;;49.00;;
16387;SDS011;8303;53.446;9.988;2023-06-22T07:58:44;64.30;;;60.55;;
16387;SDS011;8303;53.446;9.988;2023-06-22T08:01:11;57.50;;;54.35;;
16387;SDS011;8303;53.446;9.988;2023-06-22T08:03:43;59.42;;;55.72;;
16387;SDS011;8303;53.446;9.988;2023-06-22T08:06:10;58.72;;;55.38;;
16387;SDS011;8303;53.446;9.988;2023-06-22T08:08:37;49.80;;;46.95;;
16387;SDS011;8303;53.446;9.988;2023-06-22T08:11:07;47.85;;;45.22;;
16387;SDS011;8303;53.446;9.988;2023-06-22T08:13:34;45.70;;;43.13;;
16387;SDS011;8303;53.446;9.988;2023-06-22T08:16:01;52.00;;;49.10;;
16387;SDS011;8303;53.446;9.988;2023-06-22T08:18:29;60.03;;;56.60;;
16387;SDS011;8303;53.446;9.988;2023-06-22T08:20:57;24.92;;;23.15;;
16387;SDS011;8303;53.446;9.988;2023-06-22T08:23:24;17.05;;;15.90;;
16387;SDS011;8303;53.446;9.988;2023-06-22T08:25:51;21.05;;;19.45;;
16387;SDS011;8303;53.446;9.988;2023-06-22T08:28:21;27.90;;;26.25;;
16387;SDS011;8303;53.446;9.988;2023-06-22T08:30:48;31.63;;;29.55;;
16387;SDS011;8303;53.446;9.988;2023-06-22T08:33:15;27.63;;;25.80;;
16387;SDS011;8303;53.446;9.988;2023-06-22T08:35:42;43.25;;;40.72;;
16387;SDS011;8303;53.446;9.988;2023-06-22T08:38:11;42.47;;;40.08;;
16387;SDS011;8303;53.446;9.988;2023-06-22T08:40:40;45.58;;;42.80;;
16387;SDS011;8303;53.446;9.988;2023-06-22T08:43:07;35.35;;;33.30;;
16387;SDS011;8303;53.446;9.988;2023-06-22T08:45:36;15.32;;;14.20;;
16387;SDS011;8303;53.446;9.988;2023-06-22T08:48:03;22.02;;;20.75;;
16387;SDS011;8303;53.446;9.988;2023-06-22T08:50:31;19.17;;;17.88;;
16387;SDS011;8303;53.446;9.988;2023-06-22T08:52:58;36.15;;;33.85;;
16387;SDS011;8303;53.446;9.988;2023-06-22T08:55:26;17.35;;;16.25;;
16387;SDS011;8303;53.446;9.988;2023-06-22T08:57:53;15.63;;;14.60;;
16387;SDS011;8303;53.446;9.988;2023-06-22T09:00:20;14.05;;;13.18;;
16387;SDS011;8303;53.446;9.988;2023-06-22T09:02:47;19.23;;;17.92;;
16387;SDS011;8303;53.446;9.988;2023-06-22T09:05:15;17.48;;;16.25;;
16387;SDS011;8303;53.446;9.988;2023-06-22T09:07:46;18.13;;;17.02;;
16387;SDS011;8303;53.446;9.988;2023-06-22T09:10:13;20.08;;;18.73;;
16387;SDS011;8303;53.446;9.988;2023-06-22T09:12:41;17.10;;;15.90;;
16387;SDS011;8303;53.446;9.988;2023-06-22T09:15:09;17.15;;;15.85;;
16387;SDS011;8303;53.446;9.988;2023-06-22T09:17:36;15.52;;;14.35;;
16387;SDS011;8303;53.446;9.988;2023-06-22T09:20:07;19.45;;;18.23;;
16387;SDS011;8303;53.446;9.988;2023-06-22T09:22:36;22.33;;;20.98;;
16387;SDS011;8303;53.446;9.988;2023-06-22T09:25:03;14.27;;;13.30;;
16387;SDS011;8303;53.446;9.988;2023-06-22T09:27:31;15.70;;;14.57;;
16387;SDS011;8303;53.446;9.988;2023-06-22T09:30:03;15.43;;;14.38;;
16387;SDS011;8303;53.446;9.988;2023-06-22T09:32:32;15.95;;;14.75;;
16387;SDS011;8303;53.446;9.988;2023-06-22T09:34:59;15.00;;;13.90;;
16387;SDS011;8303;53.446;9.988;2023-06-22T09:37:28;16.92;;;15.73;;
16387;SDS011;8303;53.446;9.988;2023-06-22T09:39:55;14.77;;;13.55;;
16387;SDS011;8303;53.446;9.988;2023-06-22T09:42:22;15.35;;;14.32;;
16387;SDS011;8303;53.446;9.988;2023-06-22T09:44:49;14.38;;;13.32;;
16387;SDS011;8303;53.446;9.988;2023-06-22T09:47:18;20.45;;;19.05;;
16387;SDS011;8303;53.446;9.988;2023-06-22T09:49:45;16.85;;;15.70;;
16387;SDS011;8303;53.446;9.988;2023-06-22T09:52:13;18.95;;;17.73;;
16387;SDS011;8303;53.446;9.988;2023-06-22T09:54:40;26.25;;;24.52;;
16387;SDS011;8303;53.446;9.988;2023-06-22T09:57:07;18.70;;;17.40;;
16387;SDS011;8303;53.446;9.988;2023-06-22T09:59:34;20.55;;;19.25;;
16387;SDS011;8303;53.446;9.988;2023-06-22T10:02:01;17.27;;;16.10;;
16387;SDS011;8303;53.446;9.988;2023-06-22T10:04:36;18.83;;;17.35;;
16387;SDS011;8303;53.446;9.988;2023-06-22T10:07:04;16.98;;;15.65;;
16387;SDS011;8303;53.446;9.988;2023-06-22T10:09:32;17.25;;;16.15;;
16387;SDS011;8303;53.446;9.988;2023-06-22T10:11:59;17.55;;;16.35;;
16387;SDS011;8303;53.446;9.988;2023-06-22T10:14:26;19.30;;;17.90;;
16387;SDS011;8303;53.446;9.988;2023-06-22T10:16:54;19.20;;;17.70;;
16387;SDS011;8303;53.446;9.988;2023-06-22T10:19:24;16.95;;;15.85;;
16387;SDS011;8303;53.446;9.988;2023-06-22T10:21:53;21.55;;;20.20;;
16387;SDS011;8303;53.446;9.988;2023-06-22T10:24:20;20.00;;;18.70;;
16387;SDS011;8303;53.446;9.988;2023-06-22T10:26:47;24.38;;;22.85;;
16387;SDS011;8303;53.446;9.988;2023-06-22T10:29:14;26.58;;;24.98;;
16387;SDS011;8303;53.446;9.988;2023-06-22T10:31:41;24.15;;;22.55;;
16387;SDS011;8303;53.446;9.988;2023-06-22T10:34:08;17.85;;;16.65;;
16387;SDS011;8303;53.446;9.988;2023-06-22T10:36:35;28.80;;;26.70;;
16387;SDS011;8303;53.446;9.988;2023-06-22T10:39:04;19.55;;;18.33;;
16387;SDS011;8303;53.446;9.988;2023-06-22T10:41:31;28.60;;;26.80;;
16387;SDS011;8303;53.446;9.988;2023-06-22T10:43:58;36.17;;;33.97;;
16387;SDS011;8303;53.446;9.988;2023-06-22T10:46:25;30.50;;;28.52;;
16387;SDS011;8303;53.446;9.988;2023-06-22T10:48:52;33.30;;;31.30;;
16387;SDS011;8303;53.446;9.988;2023-06-22T10:51:22;35.70;;;33.58;;
16387;SDS011;8303;53.446;9.988;2023-06-22T10:53:49;32.47;;;30.60;;
16387;SDS011;8303;53.446;9.988;2023-06-22T10:56:17;35.50;;;33.35;;
16387;SDS011;8303;53.446;9.988;2023-06-22T10:58:44;30.33;;;28.35;;
16387;SDS011;8303;53.446;9.988;2023-06-22T11:01:12;30.48;;;28.60;;
16387;SDS011;8303;53.446;9.988;2023-06-22T11:03:39;26.90;;;25.25;;
16387;SDS011;8303;53.446;9.988;2023-06-22T11:06:06;28.38;;;26.67;;
16387;SDS011;8303;53.446;9.988;2023-06-22T11:08:32;21.60;;;19.90;;
16387;SDS011;8303;53.446;9.988;2023-06-22T11:10:59;39.42;;;36.83;;
16387;SDS011;8303;53.446;9.988;2023-06-22T11:13:27;37.40;;;35.20;;
16387;SDS011;8303;53.446;9.988;2023-06-22T11:15:54;36.20;;;34.00;;
16387;SDS011;8303;53.446;9.988;2023-06-22T11:18:21;42.13;;;39.72;;
16387;SDS011;8303;53.446;9.988;2023-06-22T11:20:48;35.00;;;32.85;;
16387;SDS011;8303;53.446;9.988;2023-06-22T11:23:15;48.05;;;45.30;;
16387;SDS011;8303;53.446;9.988;2023-06-22T11:25:42;49.42;;;46.40;;
16387;SDS011;8303;53.446;9.988;2023-06-22T11:28:09;50.83;;;47.72;;
16387;SDS011;8303;53.446;9.988;2023-06-22T11:30:37;52.22;;;49.25;;
16387;SDS011;8303;53.446;9.988;2023-06-22T11:33:04;51.20;;;48.38;;
16387;SDS011;8303;53.446;9.988;2023-06-22T11:35:31;54.72;;;51.63;;
16387;SDS011;8303;53.446;9.988;2023-06-22T11:37:58;55.45;;;52.33;;
16387;SDS011;8303;53.446;9.988;2023-06-22T11:40:25;55.58;;;52.47;;
16387;SDS011;8303;53.446;9.988;2023-06-22T11:42:52;53.00;;;49.85;;
16387;SDS011;8303;53.446;9.988;2023-06-22T11:45:18;66.80;;;62.88;;
16387;SDS011;8303;53.446;9.988;2023-06-22T11:47:47;59.42;;;56.13;;
16387;SDS011;8303;53.446;9.988;2023-06-22T11:50:14;56.25;;;52.75;;
16387;SDS011;8303;53.446;9.988;2023-06-22T11:52:41;54.33;;;51.13;;
16387;SDS011;8303;53.446;9.988;2023-06-22T11:55:07;39.90;;;37.67;;
16387;SDS011;8303;53.446;9.988;2023-06-22T11:57:35;34.58;;;32.35;;
16387;SDS011;8303;53.446;9.988;2023-06-22T12:00:03;29.45;;;27.70;;
16387;SDS011;8303;53.446;9.988;2023-06-22T12:02:38;15.73;;;14.35;;
16387;SDS011;8303;53.446;9.988;2023-06-22T12:05:07;13.82;;;12.93;;
16387;SDS011;8303;53.446;9.988;2023-06-22T12:07:34;14.75;;;13.70;;
16387;SDS011;8303;53.446;9.988;2023-06-22T12:10:01;12.80;;;11.90;;
16387;SDS011;8303;53.446;9.988;2023-06-22T12:12:28;19.80;;;18.50;;
16387;SDS011;8303;53.446;9.988;2023-06-22T12:14:55;12.15;;;11.25;;
16387;SDS011;8303;53.446;9.988;2023-06-22T12:17:22;16.50;;;15.23;;
16387;SDS011;8303;53.446;9.988;2023-06-22T12:19:49;14.63;;;13.45;;
16387;SDS011;8303;53.446;9.988;2023-06-22T12:22:17;26.85;;;25.20;;
16387;SDS011;8303;53.446;9.988;2023-06-22T12:24:44;37.00;;;34.85;;
16387;SDS011;8303;53.446;9.988;2023-06-22T12:27:11;67.88;;;64.07;;
16387;SDS011;8303;53.446;9.988;2023-06-22T12:29:38;22.08;;;20.67;;
16387;SDS011;8303;53.446;9.988;2023-06-22T12:32:05;45.63;;;42.88;;
16387;SDS011;8303;53.446;9.988;2023-06-22T12:34:32;68.85;;;64.93;;
16387;SDS011;8303;53.446;9.988;2023-06-22T12:36:59;35.85;;;33.65;;
16387;SDS011;8303;53.446;9.988;2023-06-22T12:39:28;54.17;;;50.97;;
16387;SDS011;8303;53.446;9.988;2023-06-22T12:41:55;53.00;;;50.03;;
16387;SDS011;8303;53.446;9.988;2023-06-22T12:44:22;35.13;;;33.05;;
16387;SDS011;8303;53.446;9.988;2023-06-22T12:46:49;48.85;;;45.92;;
16387;SDS011;8303;53.446;9.988;2023-06-22T12:49:16;26.77;;;24.92;;
16387;SDS011;8303;53.446;9.988;2023-06-22T12:51:43;65.95;;;62.15;;
16387;SDS011;8303;53.446;9.988;2023-06-22T12:54:11;27.45;;;25.60;;
16387;SDS011;8303;53.446;9.988;2023-06-22T12:56:39;32.15;;;30.17;;
16387;SDS011;8303;53.446;9.988;2023-06-22T12:59:08;19.25;;;18.00;;
16387;SDS011;8303;53.446;9.988;2023-06-22T13:01:35;31.55;;;29.45;;
16387;SDS011;8303;53.446;9.988;2023-06-22T13:04:02;32.85;;;30.90;;
16387;SDS011;8303;53.446;9.988;2023-06-22T13:06:30;39.42;;;37.17;;
16387;SDS011;8303;53.446;9.988;2023-06-22T13:08:57;61.70;;;58.15;;
16387;SDS011;8303;53.446;9.988;2023-06-22T13:11:24;62.80;;;59.08;;
16387;SDS011;8303;53.446;9.988;2023-06-22T13:13:52;49.80;;;46.97;;
16387;SDS011;8303;53.446;9.988;2023-06-22T13:16:19;79.60;;;75.18;;
16387;SDS011;8303;53.446;9.988;2023-06-22T13:18:45;69.18;;;65.30;;
16387;SDS011;8303;53.446;9.988;2023-06-22T13:21:13;75.10;;;71.00;;
16387;SDS011;8303;53.446;9.988;2023-06-22T13:23:40;68.30;;;64.30;;
16387;SDS011;8303;53.446;9.988;2023-06-22T13:26:07;74.95;;;70.68;;
16387;SDS011;8303;53.446;9.988;2023-06-22T13:28:34;62.63;;;59.13;;
16387;SDS011;8303;53.446;9.988;2023-06-22T13:31:02;62.58;;;59.03;;
16387;SDS011;8303;53.446;9.988;2023-06-22T13:33:29;42.53;;;40.08;;
16387;SDS011;8303;53.446;9.988;2023-06-22T13:35:56;76.90;;;72.68;;
16387;SDS011;8303;53.446;9.988;2023-06-22T13:38:22;71.43;;;67.35;;
16387;SDS011;8303;53.446;9.988;2023-06-22T13:40:49;76.90;;;72.78;;
16387;SDS011;8303;53.446;9.988;2023-06-22T13:43:16;71.90;;;67.78;;
16387;SDS011;8303;53.446;9.988;2023-06-22T13:45:43;76.32;;;72.10;;
16387;SDS011;8303;53.446;9.988;2023-06-22T13:48:11;53.60;;;50.45;;
16387;SDS011;8303;53.446;9.988;2023-06-22T13:50:38;69.25;;;65.30;;
16387;SDS011;8303;53.446;9.988;2023-06-22T13:53:05;74.80;;;70.63;;
16387;SDS011;8303;53.446;9.988;2023-06-22T13:55:32;73.90;;;69.88;;
16387;SDS011;8303;53.446;9.988;2023-06-22T13:57:59;71.30;;;67.25;;
16387;SDS011;8303;53.446;9.988;2023-06-22T14:00:26;66.90;;;63.00;;
16387;SDS011;8303;53.446;9.988;2023-06-22T14:02:53;63.35;;;59.75;;
16387;SDS011;8303;53.446;9.988;2023-06-22T14:05:21;64.07;;;60.08;;
16387;SDS011;8303;53.446;9.988;2023-06-22T14:07:48;23.33;;;21.63;;
16387;SDS011;8303;53.446;9.988;2023-06-22T14:10:15;21.40;;;20.08;;
16387;SDS011;8303;53.446;9.988;2023-06-22T14:12:41;26.40;;;24.60;;
16387;SDS011;8303;53.446;9.988;2023-06-22T14:15:09;37.33;;;34.92;;
16387;SDS011;8303;53.446;9.988;2023-06-22T14:17:36;51.83;;;48.78;;
16387;SDS011;8303;53.446;9.988;2023-06-22T14:20:04;82.78;;;78.10;;
16387;SDS011;8303;53.446;9.988;2023-06-22T14:22:34;49.63;;;46.53;;
16387;SDS011;8303;53.446;9.988;2023-06-22T14:25:01;64.30;;;60.70;;
16387;SDS011;8303;53.446;9.988;2023-06-22T14:27:29;72.72;;;68.65;;
16387;SDS011;8303;53.446;9.988;2023-06-22T14:29:56;50.72;;;47.75;;
16387;SDS011;8303;53.446;9.988;2023-06-22T14:32:22;49.85;;;46.95;;
16387;SDS011;8303;53.446;9.988;2023-06-22T14:34:50;54.65;;;51.40;;
16387;SDS011;8303;53.446;9.988;2023-06-22T14:37:17;54.70;;;51.25;;
16387;SDS011;8303;53.446;9.988;2023-06-22T14:39:45;32.83;;;30.73;;
16387;SDS011;8303;53.446;9.988;2023-06-22T14:42:12;46.45;;;42.72;;
16387;SDS011;8303;53.446;9.988;2023-06-22T14:44:39;22.95;;;21.33;;
16387;SDS011;8303;53.446;9.988;2023-06-22T14:47:06;30.02;;;28.02;;
16387;SDS011;8303;53.446;9.988;2023-06-22T14:49:35;22.58;;;21.08;;
16387;SDS011;8303;53.446;9.988;2023-06-22T14:52:02;19.10;;;17.80;;
16387;SDS011;8303;53.446;9.988;2023-06-22T14:54:29;19.58;;;18.08;;
16387;SDS011;8303;53.446;9.988;2023-06-22T14:56:57;36.33;;;34.05;;
16387;SDS011;8303;53.446;9.988;2023-06-22T14:59:24;36.70;;;34.38;;
16387;SDS011;8303;53.446;9.988;2023-06-22T15:01:51;46.03;;;43.25;;
16387;SDS011;8303;53.446;9.988;2023-06-22T15:04:18;41.42;;;38.90;;
16387;SDS011;8303;53.446;9.988;2023-06-22T15:06:44;36.85;;;34.28;;
16387;SDS011;8303;53.446;9.988;2023-06-22T15:09:11;45.35;;;42.65;;
16387;SDS011;8303;53.446;9.988;2023-06-22T15:11:38;53.10;;;50.00;;
16387;SDS011;8303;53.446;9.988;2023-06-22T15:14:06;37.67;;;35.40;;
16387;SDS011;8303;53.446;9.988;2023-06-22T15:16:33;35.08;;;32.67;;
16387;SDS011;8303;53.446;9.988;2023-06-22T15:19:00;29.63;;;27.83;;
16387;SDS011;8303;53.446;9.988;2023-06-22T15:21:27;35.30;;;33.03;;
16387;SDS011;8303;53.446;9.988;2023-06-22T15:23:54;21.55;;;19.95;;
16387;SDS011;8303;53.446;9.988;2023-06-22T15:26:21;19.63;;;18.08;;
16387;SDS011;8303;53.446;9.988;2023-06-22T15:28:47;24.48;;;22.75;;
16387;SDS011;8303;53.446;9.988;2023-06-22T15:31:16;23.65;;;22.15;;
16387;SDS011;8303;53.446;9.988;2023-06-22T15:33:42;19.00;;;17.80;;
16387;SDS011;8303;53.446;9.988;2023-06-22T15:36:09;23.02;;;21.25;;
16387;SDS011;8303;53.446;9.988;2023-06-22T15:38:36;24.25;;;22.52;;
16387;SDS011;8303;53.446;9.988;2023-06-22T15:41:03;34.35;;;31.92;;
16387;SDS011;8303;53.446;9.988;2023-06-22T15:43:30;21.25;;;19.83;;
16387;SDS011;8303;53.446;9.988;2023-06-22T15:45:57;18.95;;;17.52;;
16387;SDS011;8303;53.446;9.988;2023-06-22T15:48:25;21.15;;;19.63;;
16387;SDS011;8303;53.446;9.988;2023-06-22T15:50:52;18.92;;;17.48;;
16387;SDS011;8303;53.446;9.988;2023-06-22T15:53:19;25.73;;;23.92;;
16387;SDS011;8303;53.446;9.988;2023-06-22T15:55:46;20.70;;;19.13;;
16387;SDS011;8303;53.446;9.988;2023-06-22T15:58:14;16.77;;;15.48;;
16387;SDS011;8303;53.446;9.988;2023-06-22T16:00:42;18.67;;;17.27;;
16387;SDS011;8303;53.446;9.988;2023-06-22T16:03:10;16.60;;;15.50;;
16387;SDS011;8303;53.446;9.988;2023-06-22T16:05:38;19.67;;;18.38;;
16387;SDS011;8303;53.446;9.988;2023-06-22T16:08:08;18.08;;;16.77;;
16387;SDS011;8303;53.446;9.988;2023-06-22T16:10:37;16.98;;;15.77;;
16387;SDS011;8303;53.446;9.988;2023-06-22T16:13:04;18.52;;;17.20;;
16387;SDS011;8303;53.446;9.988;2023-06-22T16:15:31;25.58;;;23.83;;
16387;SDS011;8303;53.446;9.988;2023-06-22T16:17:58;19.92;;;18.55;;
16387;SDS011;8303;53.446;9.988;2023-06-22T16:20:25;26.65;;;24.92;;
16387;SDS011;8303;53.446;9.988;2023-06-22T16:22:53;32.67;;;30.67;;
16387;SDS011;8303;53.446;9.988;2023-06-22T16:25:20;25.27;;;23.50;;
16387;SDS011;8303;53.446;9.988;2023-06-22T16:27:47;31.90;;;29.95;;
16387;SDS011;8303;53.446;9.988;2023-06-22T16:30:14;46.70;;;44.03;;
16387;SDS011;8303;53.446;9.988;2023-06-22T16:32:49;48.35;;;45.38;;
16387;SDS011;8303;53.446;9.988;2023-06-22T16:35:16;45.95;;;43.13;;
16387;SDS011;8303;53.446;9.988;2023-06-22T16:37:43;52.92;;;49.75;;
16387;SDS011;8303;53.446;9.988;2023-06-22T16:40:12;58.58;;;55.25;;
16387;SDS011;8303;53.446;9.988;2023-06-22T16:42:40;85.07;;;80.57;;
16387;SDS011;8303;53.446;9.988;2023-06-22T16:45:07;79.53;;;74.85;;
16387;SDS011;8303;53.446;9.988;2023-06-22T16:47:35;84.72;;;80.03;;
16387;SDS011;8303;53.446;9.988;2023-06-22T16:50:02;82.88;;;78.15;;
16387;SDS011;8303;53.446;9.988;2023-06-22T16:52:29;92.30;;;87.40;;
16387;SDS011;8303;53.446;9.988;2023-06-22T16:54:56;97.78;;;92.60;;
16387;SDS011;8303;53.446;9.988;2023-06-22T16:57:24;95.28;;;89.72;;
16387;SDS011;8303;53.446;9.988;2023-06-22T16:59:52;105.15;;;99.68;;
16387;SDS011;8303;53.446;9.988;2023-06-22T17:02:19;96.30;;;91.25;;
16387;SDS011;8303;53.446;9.988;2023-06-22T17:04:48;84.38;;;79.85;;
16387;SDS011;8303;53.446;9.988;2023-06-22T17:07:18;107.47;;;101.97;;
16387;SDS011;8303;53.446;9.988;2023-06-22T17:09:46;85.47;;;80.78;;
16387;SDS011;8303;53.446;9.988;2023-06-22T17:12:14;81.30;;;76.78;;
16387;SDS011;8303;53.446;9.988;2023-06-22T17:14:44;84.13;;;79.63;;
16387;SDS011;8303;53.446;9.988;2023-06-22T17:17:11;102.57;;;97.15;;
16387;SDS011;8303;53.446;9.988;2023-06-22T17:19:41;85.32;;;80.72;;
16387;SDS011;8303;53.446;9.988;2023-06-22T17:22:08;103.68;;;98.25;;
16387;SDS011;8303;53.446;9.988;2023-06-22T17:24:35;122.70;;;116.20;;
16387;SDS011;8303;53.446;9.988;2023-06-22T17:27:03;121.53;;;115.28;;
16387;SDS011;8303;53.446;9.988;2023-06-22T17:29:30;113.22;;;107.35;;
16387;SDS011;8303;53.446;9.988;2023-06-22T17:32:00;108.35;;;102.35;;
16387;SDS011;8303;53.446;9.988;2023-06-22T17:34:27;110.93;;;105.22;;
16387;SDS011;8303;53.446;9.988;2023-06-22T17:36:56;86.10;;;81.43;;
16387;SDS011;8303;53.446;9.988;2023-06-22T17:39:24;104.22;;;98.88;;
16387;SDS011;8303;53.446;9.988;2023-06-22T17:41:53;122.57;;;116.05;;
16387;SDS011;8303;53.446;9.988;2023-06-22T17:44:22;119.45;;;113.07;;
16387;SDS011;8303;53.446;9.988;2023-06-22T17:46:51;133.75;;;126.88;;
16387;SDS011;8303;53.446;9.988;2023-06-22T17:49:20;114.45;;;108.28;;
16387;SDS011;8303;53.446;9.988;2023-06-22T17:51:49;104.78;;;99.28;;
16387;SDS011;8303;53.446;9.988;2023-06-22T17:54:17;107.00;;;101.50;;
16387;SDS011;8303;53.446;9.988;2023-06-22T17:56:47;123.82;;;117.45;;
16387;SDS011;8303;53.446;9.988;2023-06-22T17:59:15;107.40;;;101.80;;
16387;SDS011;8303;53.446;9.988;2023-06-22T18:01:43;91.80;;;87.07;;
16387;SDS011;8303;53.446;9.988;2023-06-22T18:04:11;91.38;;;86.47;;
16387;SDS011;8303;53.446;9.988;2023-06-22T18:06:40;82.95;;;78.57;;
16387;SDS011;8303;53.446;9.988;2023-06-22T18:09:09;76.55;;;72.43;;
16387;SDS011;8303;53.446;9.988;2023-06-22T18:11:38;84.18;;;79.75;;
16387;SDS011;8303;53.446;9.988;2023-06-22T18:14:09;86.60;;;81.97;;
16387;SDS011;8303;53.446;9.988;2023-06-22T18:16:36;99.35;;;94.15;;
16387;SDS011;8303;53.446;9.988;2023-06-22T18:19:03;108.95;;;103.32;;
16387;SDS011;8303;53.446;9.988;2023-06-22T18:21:31;92.13;;;87.13;;
16387;SDS011;8303;53.446;9.988;2023-06-22T18:24:00;63.15;;;59.45;;
16387;SDS011;8303;53.446;9.988;2023-06-22T18:26:27;32.65;;;30.45;;
16387;SDS011;8303;53.446;9.988;2023-06-22T18:28:55;23.00;;;21.55;;
16387;SDS011;8303;53.446;9.988;2023-06-22T18:31:23;18.70;;;17.23;;
16387;SDS011;8303;53.446;9.988;2023-06-22T18:33:51;21.98;;;20.67;;
16387;SDS011;8303;53.446;9.988;2023-06-22T18:36:21;37.55;;;35.35;;
16387;SDS011;8303;53.446;9.988;2023-06-22T18:38:51;19.35;;;18.25;;
16387;SDS011;8303;53.446;9.988;2023-06-22T18:41:23;27.98;;;25.80;;
16387;SDS011;8303;53.446;9.988;2023-06-22T18:43:51;19.38;;;18.23;;
16387;SDS011;8303;53.446;9.988;2023-06-22T18:46:29;20.20;;;18.77;;
16387;SDS011;8303;53.446;9.988;2023-06-22T18:49:01;26.38;;;24.40;;
16387;SDS011;8303;53.446;9.988;2023-06-22T18:51:29;27.42;;;25.88;;
16387;SDS011;8303;53.446;9.988;2023-06-22T18:54:03;29.88;;;28.02;;
16387;SDS011;8303;53.446;9.988;2023-06-22T18:56:31;38.63;;;36.33;;
16387;SDS011;8303;53.446;9.988;2023-06-22T18:58:58;21.17;;;19.88;;
16387;SDS011;8303;53.446;9.988;2023-06-22T19:01:25;18.67;;;17.50;;
16387;SDS011;8303;53.446;9.988;2023-06-22T19:03:56;26.70;;;25.10;;
16387;SDS011;8303;53.446;9.988;2023-06-22T19:09:21;22.08;;;20.80;;
16387;SDS011;8303;53.446;9.988;2023-06-22T19:11:49;46.20;;;43.45;;
16387;SDS011;8303;53.446;9.988;2023-06-22T19:14:36;52.40;;;49.45;;
16387;SDS011;8303;53.446;9.988;2023-06-22T19:17:05;34.35;;;32.40;;
16387;SDS011;8303;53.446;9.988;2023-06-22T19:19:33;37.65;;;35.47;;
16387;SDS011;8303;53.446;9.988;2023-06-22T19:22:03;92.20;;;87.20;;
16387;SDS011;8303;53.446;9.988;2023-06-22T19:24:30;54.38;;;51.25;;
16387;SDS011;8303;53.446;9.988;2023-06-22T19:26:59;38.25;;;36.00;;
16387;SDS011;8303;53.446;9.988;2023-06-22T19:29:26;25.40;;;23.92;;
16387;SDS011;8303;53.446;9.988;2023-06-22T19:31:54;28.00;;;26.13;;
16387;SDS011;8303;53.446;9.988;2023-06-22T19:34:22;27.83;;;26.27;;
16387;SDS011;8303;53.446;9.988;2023-06-22T19:36:50;54.65;;;51.50;;
16387;SDS011;8303;53.446;9.988;2023-06-22T19:39:17;53.72;;;50.90;;
16387;SDS011;8303;53.446;9.988;2023-06-22T19:41:44;52.80;;;49.72;;